Decoded Metar for KIXA ( in ) (IATA:) | Meteo·Mobile Aviation Weather
aviador You're here:

KIXA Decoded Metar

in
Report Time2018-12-14 07:05:00
UTC Time2018-12-14 07:15:40
Flight Rules vfr VFR
WindCalm
Visibility9999 m
Phenomena:N/A
Clouds:N/A
CeilingNone
Temp-1°C
Dew Point-1°C (100% RH)
AAT-3.1°C
QNH1028 hPa
Raw Report
KIXA 140705Z AUTO 00000KT 7SM CLR M01/M01 A3036 RMK AO2=

Extra information for KIXA:More info

Social comments